createdAt,value
2018-11-28T00:00:38.633Z,17.92
2018-11-28T00:03:08.245Z,18.40
2018-11-28T00:05:38.141Z,16.93
2018-11-28T00:08:08.926Z,13.72
2018-11-28T00:10:37.751Z,15.53
2018-11-28T00:13:07.112Z,17.50
2018-11-28T00:15:35.812Z,17.52
2018-11-28T00:18:04.808Z,16.80
2018-11-28T00:20:33.720Z,11.78
2018-11-28T00:23:03.027Z,17.03
2018-11-28T00:25:32.646Z,16.15
2018-11-28T00:28:01.315Z,13.10
2018-11-28T00:30:30.063Z,16.77
2018-11-28T00:32:59.330Z,17.35
2018-11-28T00:35:28.734Z,16.57
2018-11-28T00:37:57.396Z,16.70
2018-11-28T00:40:26.707Z,14.20
2018-11-28T00:42:55.400Z,17.97
2018-11-28T00:45:25.402Z,17.60
2018-11-28T00:47:54.121Z,18.90
2018-11-28T00:50:25.211Z,13.83
2018-11-28T00:52:53.914Z,15.55
2018-11-28T00:55:22.602Z,18.60
2018-11-28T00:57:54.174Z,14.20
2018-11-28T01:00:25.273Z,18.57
2018-11-28T01:02:54.811Z,17.52
2018-11-28T01:05:25.432Z,18.87
2018-11-28T01:07:55.142Z,15.65
2018-11-28T01:10:25.435Z,17.37
2018-11-28T01:12:55.026Z,14.95
2018-11-28T01:15:24.361Z,16.32
2018-11-28T01:17:54.714Z,14.38
2018-11-28T01:20:24.386Z,16.77
2018-11-28T01:22:53.114Z,17.37
2018-11-28T01:25:22.477Z,16.33
2018-11-28T01:27:51.433Z,16.30
2018-11-28T01:30:21.279Z,17.30
2018-11-28T01:32:50.061Z,16.12
2018-11-28T01:35:19.887Z,18.40
2018-11-28T01:37:49.880Z,18.48
2018-11-28T01:40:23.073Z,18.85
2018-11-28T01:42:52.201Z,20.80
2018-11-28T01:45:21.994Z,19.48
2018-11-28T01:47:51.417Z,16.90
2018-11-28T01:50:21.001Z,17.02
2018-11-28T01:52:49.913Z,20.80
2018-11-28T01:55:19.689Z,16.87
2018-11-28T01:57:48.490Z,11.53
2018-11-28T02:00:19.393Z,13.40
2018-11-28T02:02:50.394Z,15.43
2018-11-28T02:05:19.090Z,17.60
2018-11-28T02:07:47.764Z,19.20
2018-11-28T02:10:17.058Z,19.00
2018-11-28T02:12:45.777Z,17.48
2018-11-28T02:15:18.439Z,12.68
2018-11-28T02:17:48.026Z,15.95
2018-11-28T02:20:17.552Z,16.70
2018-11-28T02:22:48.140Z,20.57
2018-11-28T02:25:17.715Z,16.55
2018-11-28T02:27:47.157Z,17.73
2018-11-28T02:30:17.902Z,16.97
2018-11-28T02:32:47.273Z,18.82
2018-11-28T02:35:16.540Z,20.70
2018-11-28T02:37:45.585Z,17.20
2018-11-28T02:40:15.354Z,18.17
2018-11-28T02:42:44.408Z,16.40
2018-11-28T02:45:14.478Z,19.63
2018-11-28T02:47:43.198Z,14.30
2018-11-28T02:50:11.963Z,19.60
2018-11-28T02:52:41.921Z,15.00
2018-11-28T02:55:12.507Z,21.75
2018-11-28T02:57:42.478Z,15.80
2018-11-28T03:00:22.831Z,17.45
2018-11-28T03:02:52.473Z,20.50
2018-11-28T03:05:21.443Z,17.12
2018-11-28T03:07:52.435Z,14.43
2018-11-28T03:10:22.287Z,15.72
2018-11-28T03:12:51.649Z,19.77
2018-11-28T03:15:33.262Z,14.63
2018-11-28T03:18:02.877Z,16.35
2018-11-28T03:20:33.350Z,15.20
2018-11-28T03:23:03.355Z,19.30
2018-11-28T03:25:32.058Z,18.73
2018-11-28T03:28:00.788Z,17.73
2018-11-28T03:30:29.513Z,18.25
2018-11-28T03:33:00.209Z,16.73
2018-11-28T03:35:29.664Z,18.50
2018-11-28T03:37:58.893Z,15.45
2018-11-28T03:40:28.429Z,17.15
2018-11-28T03:42:57.710Z,19.30
2018-11-28T03:45:26.399Z,21.63
2018-11-28T03:47:56.037Z,20.32
2018-11-28T03:50:25.219Z,21.93
2018-11-28T03:52:55.140Z,17.20
2018-11-28T03:55:25.118Z,17.30
2018-11-28T03:57:53.850Z,18.70
2018-11-28T04:00:23.267Z,20.68
2018-11-28T04:02:51.989Z,16.82
2018-11-28T04:05:21.736Z,17.52
2018-11-28T04:07:50.426Z,19.17
2018-11-28T04:10:19.406Z,13.93
2018-11-28T04:12:48.842Z,18.23
2018-11-28T04:15:19.611Z,19.70
2018-11-28T04:17:49.138Z,18.20
2018-11-28T04:20:19.043Z,18.40
2018-11-28T04:22:47.767Z,21.12
2018-11-28T04:25:18.975Z,19.32
2018-11-28T04:27:47.721Z,20.15
2018-11-28T04:30:18.656Z,17.62
2018-11-28T04:32:48.201Z,19.25
2018-11-28T04:35:16.963Z,19.40
2018-11-28T04:37:46.245Z,18.30
2018-11-28T04:40:16.835Z,18.50
2018-11-28T04:42:46.545Z,20.23
2018-11-28T04:45:22.672Z,20.60
2018-11-28T04:47:52.269Z,16.10
2018-11-28T04:50:20.934Z,15.20
2018-11-28T04:52:49.650Z,19.50
2018-11-28T04:55:19.270Z,15.97
2018-11-28T04:57:48.406Z,16.60
2018-11-28T05:00:23.243Z,18.77
2018-11-28T05:02:52.515Z,19.40
2018-11-28T05:05:22.037Z,18.77
2018-11-28T05:07:51.551Z,18.83
2018-11-28T05:10:26.212Z,20.30
2018-11-28T05:12:56.114Z,19.17
2018-11-28T05:15:30.200Z,18.52
2018-11-28T05:18:00.183Z,19.07
2018-11-28T05:20:29.990Z,19.75
2018-11-28T05:22:58.722Z,19.60
2018-11-28T05:25:28.596Z,15.78
2018-11-28T05:27:58.464Z,18.32
2018-11-28T05:30:29.051Z,17.37
2018-11-28T05:32:58.770Z,19.85
2018-11-28T05:35:32.944Z,19.45
2018-11-28T05:38:02.767Z,17.80
2018-11-28T05:40:31.429Z,16.23
2018-11-28T05:43:01.352Z,20.30
2018-11-28T05:45:30.976Z,21.23
2018-11-28T05:48:00.354Z,21.42
2018-11-28T05:50:30.564Z,19.65
2018-11-28T05:52:59.225Z,20.97
2018-11-28T05:55:28.501Z,19.15
2018-11-28T05:57:58.517Z,19.47
2018-11-28T06:00:33.414Z,16.70
2018-11-28T06:03:03.546Z,18.03
2018-11-28T06:05:33.401Z,15.90
2018-11-28T06:08:01.573Z,20.43
2018-11-28T06:10:30.974Z,19.77
2018-11-28T06:13:00.277Z,20.15
2018-11-28T06:15:30.085Z,20.17
2018-11-28T06:17:59.391Z,21.00
2018-11-28T06:20:28.704Z,21.10
2018-11-28T06:22:58.929Z,18.17
2018-11-28T06:25:29.481Z,19.17
2018-11-28T06:27:58.189Z,19.87
2018-11-28T06:30:27.057Z,20.32
2018-11-28T06:32:56.398Z,18.77
2018-11-28T06:35:25.140Z,18.30
2018-11-28T06:37:54.205Z,15.98
2018-11-28T06:40:24.470Z,19.15
2018-11-28T06:42:53.108Z,19.02
2018-11-28T06:45:23.265Z,18.03
2018-11-28T06:47:52.557Z,20.45
2018-11-28T06:50:22.789Z,18.92
2018-11-28T06:52:52.466Z,19.23
2018-11-28T06:55:22.089Z,17.12
2018-11-28T06:57:51.286Z,19.12
2018-11-28T07:00:22.026Z,18.98
2018-11-28T07:02:51.741Z,20.72
2018-11-28T07:05:20.895Z,17.17
2018-11-28T07:07:49.881Z,17.82
2018-11-28T07:10:19.675Z,19.87
2018-11-28T07:12:48.352Z,16.23
2018-11-28T07:15:24.095Z,20.90
2018-11-28T07:17:52.785Z,16.45
2018-11-28T07:20:21.489Z,16.50
2018-11-28T07:22:50.130Z,18.87
2018-11-28T07:25:19.345Z,17.35
2018-11-28T07:27:49.084Z,16.37
2018-11-28T07:30:19.997Z,20.95
2018-11-28T07:32:50.278Z,20.45
2018-11-28T07:35:18.977Z,18.47
2018-11-28T07:37:47.661Z,18.67
2018-11-28T07:40:20.759Z,18.20
2018-11-28T07:42:59.397Z,19.23
2018-11-28T07:45:28.081Z,18.17
2018-11-28T07:47:57.302Z,19.05
2018-11-28T07:50:26.701Z,19.10
2018-11-28T07:52:55.373Z,21.20
2018-11-28T07:55:24.053Z,20.30
2018-11-28T07:57:53.305Z,21.02
2018-11-28T08:00:23.843Z,17.17
2018-11-28T08:02:53.854Z,20.20
2018-11-28T08:05:23.770Z,18.90
2018-11-28T08:07:53.645Z,17.42
2018-11-28T08:10:24.074Z,19.77
2018-11-28T08:12:55.117Z,19.73
2018-11-28T08:15:24.845Z,19.07
2018-11-28T08:17:54.203Z,19.40
2018-11-28T08:20:24.764Z,19.50
2018-11-28T08:22:55.086Z,18.92
2018-11-28T08:25:27.808Z,18.42
2018-11-28T08:27:52.577Z,20.27
2018-11-28T08:30:24.604Z,20.17
2018-11-28T08:32:54.598Z,17.87
2018-11-28T08:35:23.966Z,19.07
2018-11-28T08:37:53.303Z,20.90
2018-11-28T08:40:25.761Z,17.07
2018-11-28T08:42:55.691Z,19.05
2018-11-28T08:45:25.203Z,17.85
2018-11-28T08:47:57.054Z,20.40
2018-11-28T08:50:30.241Z,21.42
2018-11-28T08:52:59.594Z,19.00
2018-11-28T08:55:28.490Z,18.87
2018-11-28T08:57:57.754Z,18.20
2018-11-28T09:00:27.735Z,18.60
2018-11-28T09:02:57.478Z,19.57
2018-11-28T09:05:26.914Z,21.07
2018-11-28T09:07:56.094Z,20.32
2018-11-28T09:10:24.851Z,20.52
2018-11-28T09:12:54.284Z,20.27
2018-11-28T09:15:25.000Z,19.50
2018-11-28T09:17:54.977Z,19.85
2018-11-28T09:20:23.698Z,16.65
2018-11-28T09:22:52.966Z,18.87
2018-11-28T09:25:21.979Z,18.37
2018-11-28T09:27:53.981Z,17.95
2018-11-28T09:30:23.801Z,17.32
2018-11-28T09:32:54.330Z,19.42
2018-11-28T09:35:25.036Z,18.23
2018-11-28T09:37:54.905Z,20.10
2018-11-28T09:40:25.561Z,19.23
2018-11-28T09:42:55.405Z,20.55
2018-11-28T09:45:24.090Z,17.65
2018-11-28T09:47:53.338Z,19.85
2018-11-28T09:50:24.075Z,18.20
2018-11-28T09:52:53.264Z,17.62
2018-11-28T09:55:27.629Z,18.20
2018-11-28T09:57:57.047Z,16.42
2018-11-28T10:00:27.373Z,21.50
2018-11-28T10:02:58.310Z,17.37
2018-11-28T10:05:28.696Z,17.07
2018-11-28T10:07:57.958Z,18.52
2018-11-28T10:10:27.333Z,20.82
2018-11-28T10:12:56.285Z,20.62
2018-11-28T10:15:26.022Z,17.37
2018-11-28T10:17:54.733Z,17.62
2018-11-28T10:20:23.377Z,17.37
2018-11-28T10:22:53.022Z,19.98
2018-11-28T10:25:24.826Z,18.57
2018-11-28T10:27:56.813Z,19.13
2018-11-28T10:30:26.795Z,20.35
2018-11-28T10:32:56.396Z,17.53
2018-11-28T10:35:25.142Z,18.62
2018-11-28T10:37:53.889Z,17.35
2018-11-28T10:40:24.437Z,19.80
2018-11-28T10:42:56.080Z,17.60
2018-11-28T10:45:25.929Z,18.23
2018-11-28T10:47:55.852Z,19.35
2018-11-28T10:50:25.340Z,18.60
2018-11-28T10:52:54.730Z,16.93
2018-11-28T10:55:24.892Z,18.05
2018-11-28T10:57:53.645Z,17.50
2018-11-28T11:00:31.738Z,18.55
2018-11-28T11:03:05.817Z,21.15
2018-11-28T11:05:39.842Z,17.37
2018-11-28T11:08:14.740Z,18.30
2018-11-28T11:10:48.790Z,19.80
2018-11-28T11:13:22.691Z,19.75
2018-11-28T11:15:55.459Z,18.05
2018-11-28T11:18:24.689Z,18.07
2018-11-28T11:20:53.473Z,18.77
2018-11-28T11:23:22.294Z,17.77
2018-11-28T11:25:51.679Z,21.12
2018-11-28T11:28:21.205Z,19.35
2018-11-28T11:30:51.617Z,17.50
2018-11-28T11:33:20.484Z,17.12
2018-11-28T11:35:49.242Z,17.50
2018-11-28T11:38:18.779Z,17.65
2018-11-28T11:40:47.510Z,16.73
2018-11-28T11:43:16.753Z,17.00
2018-11-28T11:45:45.944Z,18.52
2018-11-28T11:48:14.611Z,18.57
2018-11-28T11:50:43.818Z,15.63
2018-11-28T11:53:12.688Z,18.93
2018-11-28T11:55:41.470Z,17.75
2018-11-28T11:58:10.786Z,17.80
2018-11-28T12:00:41.209Z,18.10
2018-11-28T12:03:13.093Z,18.67
2018-11-28T12:05:49.462Z,17.27
2018-11-28T12:08:18.190Z,19.35
2018-11-28T12:10:48.300Z,17.63
2018-11-28T12:13:17.027Z,18.98
2018-11-28T12:15:46.269Z,16.17
2018-11-28T12:18:15.085Z,16.90
2018-11-28T12:20:52.661Z,16.10
2018-11-28T12:23:21.414Z,16.07
2018-11-28T12:25:51.513Z,19.70
2018-11-28T12:28:21.671Z,16.63
2018-11-28T12:30:51.000Z,18.17
2018-11-28T12:33:21.708Z,19.00
2018-11-28T12:35:51.757Z,19.42
2018-11-28T12:38:21.227Z,16.95
2018-11-28T12:40:50.817Z,18.82
2018-11-28T12:43:20.227Z,16.27
2018-11-28T12:45:50.175Z,15.10
2018-11-28T12:48:19.690Z,16.80
2018-11-28T12:50:48.416Z,16.63
2018-11-28T12:53:17.123Z,17.52
2018-11-28T12:55:45.781Z,15.85
2018-11-28T12:58:17.475Z,14.55
2018-11-28T13:00:46.322Z,15.58
2018-11-28T13:03:16.445Z,16.62
2018-11-28T13:05:45.663Z,16.27
2018-11-28T13:08:14.947Z,15.93
2018-11-28T13:10:43.942Z,16.17
2018-11-28T13:13:13.489Z,17.90
2018-11-28T13:15:44.186Z,15.60
2018-11-28T13:18:12.918Z,16.05
2018-11-28T13:20:43.252Z,16.27
2018-11-28T13:23:13.346Z,16.52
2018-11-28T13:25:42.806Z,15.70
2018-11-28T13:28:12.161Z,16.00
2018-11-28T13:30:41.024Z,16.05
2018-11-28T13:33:11.287Z,15.85
2018-11-28T13:35:39.972Z,15.75
2018-11-28T13:38:11.063Z,16.65
2018-11-28T13:40:40.711Z,17.15
2018-11-28T13:43:09.815Z,16.32
2018-11-28T13:45:41.035Z,15.55
2018-11-28T13:48:10.565Z,15.85
2018-11-28T13:50:40.022Z,16.50
2018-11-28T13:53:11.601Z,16.67
2018-11-28T13:56:30.039Z,15.50
2018-11-28T13:58:19.798Z,16.32
2018-11-28T14:00:49.165Z,15.70
2018-11-28T14:03:18.734Z,13.78
2018-11-28T14:05:48.926Z,15.30
2018-11-28T14:08:17.767Z,16.75
2018-11-28T14:10:46.541Z,16.30
2018-11-28T14:13:16.702Z,15.30
2018-11-28T14:18:38.238Z,15.07
2018-11-28T14:21:08.101Z,14.63
2018-11-28T14:23:37.542Z,15.38
2018-11-28T14:26:07.213Z,16.30
2018-11-28T14:28:37.766Z,15.05
2018-11-28T14:31:07.673Z,15.08
2018-11-28T14:33:37.251Z,16.13
2018-11-28T14:36:06.775Z,15.27
2018-11-28T14:38:35.587Z,13.97
2018-11-28T14:41:05.279Z,15.45
2018-11-28T14:43:35.414Z,15.53
2018-11-28T14:46:04.767Z,16.07
2018-11-28T14:48:35.154Z,15.07
2018-11-28T14:51:05.129Z,14.40
2018-11-28T14:53:35.386Z,14.73
2018-11-28T14:56:05.590Z,15.03
2018-11-28T14:58:34.275Z,14.43
2018-11-28T15:01:03.631Z,16.30
2018-11-28T15:03:32.344Z,15.10
2018-11-28T15:06:09.640Z,17.50
2018-11-28T15:08:38.859Z,14.50
2018-11-28T15:11:09.824Z,14.85
2018-11-28T15:13:39.344Z,15.78
2018-11-28T15:16:08.346Z,16.07
2018-11-28T15:18:37.227Z,15.00
2018-11-28T15:21:07.210Z,15.23
2018-11-28T15:23:37.172Z,16.95
2018-11-28T15:26:06.744Z,14.35
2018-11-28T15:28:35.455Z,16.80
2018-11-28T15:31:05.014Z,16.20
2018-11-28T15:33:33.730Z,15.75
2018-11-28T15:36:02.465Z,16.15
2018-11-28T15:38:33.270Z,16.57
2018-11-28T15:41:02.553Z,16.27
2018-11-28T15:43:31.193Z,15.35
2018-11-28T15:45:59.910Z,16.62
2018-11-28T15:48:28.593Z,15.70
2018-11-28T15:50:57.669Z,14.80
2018-11-28T15:53:27.603Z,15.78
2018-11-28T15:55:56.367Z,16.47
2018-11-28T15:58:25.792Z,17.87
2018-11-28T16:00:54.518Z,14.65
2018-11-28T16:03:24.309Z,16.42
2018-11-28T16:05:53.082Z,17.27
2018-11-28T16:08:23.423Z,14.58
2018-11-28T16:10:52.718Z,15.20
2018-11-28T16:13:21.942Z,14.95
2018-11-28T16:15:56.842Z,15.55
2018-11-28T16:18:25.620Z,17.40
2018-11-28T16:20:55.253Z,16.62
2018-11-28T16:23:24.007Z,16.62
2018-11-28T16:25:52.705Z,18.00
2018-11-28T16:28:21.907Z,17.93
2018-11-28T16:30:51.359Z,15.88
2018-11-28T16:33:20.138Z,16.57
2018-11-28T16:35:48.829Z,15.60
2018-11-28T16:38:17.573Z,16.37
2018-11-28T16:40:46.238Z,17.45
2018-11-28T16:43:15.021Z,17.30
2018-11-28T16:45:44.973Z,17.60
2018-11-28T16:48:14.822Z,16.25
2018-11-28T16:50:44.222Z,15.08
2018-11-28T16:53:14.037Z,16.12
2018-11-28T16:55:42.797Z,18.17
2018-11-28T16:58:11.481Z,15.70
2018-11-28T17:00:43.173Z,19.20
2018-11-28T17:03:13.024Z,16.95
2018-11-28T17:05:42.349Z,16.73
2018-11-28T17:08:11.222Z,16.97
2018-11-28T17:10:41.138Z,17.65
2018-11-28T17:13:10.049Z,18.15
2018-11-28T17:15:39.989Z,18.48
2018-11-28T17:18:10.289Z,16.73
2018-11-28T17:20:41.578Z,17.75
2018-11-28T17:23:10.962Z,16.52
2018-11-28T17:25:40.135Z,16.95
2018-11-28T17:28:10.929Z,16.67
2018-11-28T17:30:40.784Z,17.48
2018-11-28T17:33:11.431Z,18.70
2018-11-28T17:35:42.544Z,18.48
2018-11-28T17:38:12.339Z,16.50
2018-11-28T17:40:42.610Z,18.32
2018-11-28T17:43:12.529Z,18.80
2018-11-28T17:45:42.665Z,17.03
2018-11-28T17:48:13.633Z,17.05
2018-11-28T17:50:44.421Z,16.87
2018-11-28T17:53:14.325Z,14.90
2018-11-28T17:55:58.324Z,15.30
2018-11-28T17:58:28.959Z,16.07
2018-11-28T18:00:58.270Z,16.50
2018-11-28T18:03:29.042Z,15.20
2018-11-28T18:06:00.482Z,15.88
2018-11-28T18:08:30.934Z,15.60
2018-11-28T18:11:18.898Z,15.20
2018-11-28T18:13:49.427Z,16.57
2018-11-28T18:16:18.729Z,17.47
2018-11-28T18:18:48.021Z,17.50
2018-11-28T18:21:17.523Z,15.08
2018-11-28T18:23:47.716Z,16.87
2018-11-28T18:26:18.165Z,15.53
2018-11-28T18:28:48.513Z,15.88
2018-11-28T18:31:18.087Z,17.00
2018-11-28T18:33:47.560Z,17.80
2018-11-28T18:36:18.658Z,15.55
2018-11-28T18:38:48.551Z,14.05
2018-11-28T18:41:17.902Z,14.75
2018-11-28T18:43:48.193Z,16.00
2018-11-28T18:46:18.171Z,15.97
2018-11-28T18:48:46.845Z,14.68
2018-11-28T18:51:16.150Z,13.45
2018-11-28T18:53:49.390Z,16.10
2018-11-28T18:56:14.502Z,16.70
2018-11-28T18:58:43.156Z,14.90
2018-11-28T19:01:12.750Z,14.90
2018-11-28T19:03:41.565Z,15.93
2018-11-28T19:06:11.013Z,14.55
2018-11-28T19:08:39.745Z,15.98
2018-11-28T19:11:08.486Z,15.48
2018-11-28T19:13:38.444Z,15.57
2018-11-28T19:16:07.394Z,15.63
2018-11-28T19:18:35.901Z,14.95
2018-11-28T19:21:04.645Z,13.37
2018-11-28T19:23:33.342Z,14.33
2018-11-28T19:26:02.600Z,14.20
2018-11-28T19:28:35.226Z,16.37
2018-11-28T19:31:04.718Z,14.75
2018-11-28T19:33:34.267Z,13.40
2018-11-28T19:36:03.039Z,15.48
2018-11-28T19:38:31.770Z,14.38
2018-11-28T19:41:02.586Z,13.97
2018-11-28T19:43:31.321Z,15.53
2018-11-28T19:46:00.022Z,13.88
2018-11-28T19:48:28.707Z,15.65
2018-11-28T19:50:57.442Z,14.57
2018-11-28T19:53:28.826Z,12.80
2018-11-28T19:55:57.518Z,13.60
2018-11-28T19:58:26.205Z,13.03
2018-11-28T20:00:54.846Z,14.83
2018-11-28T20:03:24.315Z,14.85
2018-11-28T20:05:53.898Z,12.78
2018-11-28T20:08:22.591Z,13.70
2018-11-28T20:10:51.269Z,12.80
2018-11-28T20:13:20.808Z,13.75
2018-11-28T20:15:50.806Z,12.00
2018-11-28T20:18:19.518Z,12.20
2018-11-28T20:20:48.218Z,13.20
2018-11-28T20:23:17.009Z,14.18
2018-11-28T20:25:45.861Z,12.95
2018-11-28T20:28:15.323Z,14.43
2018-11-28T20:30:45.173Z,13.25
2018-11-28T20:33:15.128Z,12.33
2018-11-28T20:35:44.917Z,12.50
2018-11-28T20:38:32.161Z,14.50
2018-11-28T20:41:01.474Z,14.80
2018-11-28T20:43:30.184Z,12.93
2018-11-28T20:45:58.917Z,15.23
2018-11-28T20:48:27.620Z,13.72
2018-11-28T20:50:56.348Z,13.85
2018-11-28T20:53:25.648Z,13.85
2018-11-28T20:55:54.356Z,13.45
2018-11-28T20:58:23.072Z,14.33
2018-11-28T21:00:51.818Z,14.45
2018-11-28T21:03:20.557Z,12.68
2018-11-28T21:05:49.249Z,13.18
2018-11-28T21:08:17.944Z,14.33
2018-11-28T21:10:46.678Z,13.65
2018-11-28T21:13:15.362Z,13.00
2018-11-28T21:15:45.340Z,14.25
2018-11-28T21:18:14.355Z,13.72
2018-11-28T21:20:44.531Z,12.53
2018-11-28T21:23:14.592Z,14.00
2018-11-28T21:25:43.318Z,12.80
2018-11-28T21:28:12.029Z,13.45
2018-11-28T21:30:41.301Z,13.85
2018-11-28T21:33:10.961Z,14.10
2018-11-28T21:35:41.349Z,12.18
2018-11-28T21:38:10.164Z,13.45
2018-11-28T21:40:38.894Z,12.95
2018-11-28T21:43:07.620Z,13.23
2018-11-28T21:45:36.901Z,12.85
2018-11-28T21:48:05.982Z,12.67
2018-11-28T21:50:36.265Z,12.18
2018-11-28T21:53:07.301Z,12.35
2018-11-28T21:55:36.655Z,11.87
2018-11-28T21:58:05.743Z,12.68
2018-11-28T22:00:35.803Z,13.50
2018-11-28T22:03:05.565Z,12.00
2018-11-28T22:05:34.854Z,13.03
2018-11-28T22:08:03.639Z,13.05
2018-11-28T22:10:32.521Z,12.07
2018-11-28T22:13:03.200Z,11.83
2018-11-28T22:15:33.481Z,12.07
2018-11-28T22:18:03.012Z,11.33
2018-11-28T22:20:31.706Z,12.25
2018-11-28T22:23:02.745Z,12.37
2018-11-28T22:25:32.946Z,12.20
2018-11-28T22:28:02.201Z,11.78
2018-11-28T22:30:31.989Z,12.20
2018-11-28T22:33:01.393Z,11.57
2018-11-28T22:35:31.261Z,12.43
2018-11-28T22:38:00.668Z,11.48
2018-11-28T22:40:30.668Z,11.70
2018-11-28T22:43:00.007Z,12.15
2018-11-28T22:45:30.105Z,13.07
2018-11-28T22:47:59.514Z,11.15
2018-11-28T22:50:28.797Z,12.60
2018-11-28T22:52:57.465Z,11.78
2018-11-28T22:55:26.130Z,13.28
2018-11-28T22:57:55.316Z,12.58
2018-11-28T23:00:30.018Z,12.73
2018-11-28T23:03:01.367Z,12.70
2018-11-28T23:05:41.174Z,10.15
2018-11-28T23:08:10.675Z,12.37
2018-11-28T23:10:39.616Z,11.05
2018-11-28T23:13:09.388Z,11.65
2018-11-28T23:15:38.093Z,12.43
2018-11-28T23:18:07.717Z,12.07
2018-11-28T23:20:36.668Z,13.00
2018-11-28T23:23:06.522Z,11.88
2018-11-28T23:25:35.232Z,11.83
2018-11-28T23:28:03.916Z,10.63
2018-11-28T23:30:32.677Z,12.33
2018-11-28T23:33:01.494Z,11.83
2018-11-28T23:35:30.386Z,12.40
2018-11-28T23:37:59.764Z,11.85
2018-11-28T23:40:28.478Z,11.00
2018-11-28T23:42:57.380Z,11.10
2018-11-28T23:45:26.842Z,12.90
2018-11-28T23:47:55.526Z,13.15
2018-11-28T23:50:25.199Z,13.47
2018-11-28T23:52:55.736Z,11.10
2018-11-28T23:55:26.437Z,11.73
2018-11-28T23:57:55.312Z,11.30
